sensor_id;sensor_type;location;lat;lon;timestamp;P1;durP1;ratioP1;P2;durP2;ratioP2
6467;SDS011;3267;48.794;9.928;2022-11-15T05:03:35;4.70;;;2.38;;
6467;SDS011;3267;48.794;9.928;2022-11-15T05:06:20;3.15;;;2.80;;
6467;SDS011;3267;48.794;9.928;2022-11-15T05:08:46;2.17;;;2.08;;
6467;SDS011;3267;48.794;9.928;2022-11-15T05:11:12;2.90;;;2.40;;
6467;SDS011;3267;48.794;9.928;2022-11-15T05:13:37;2.60;;;1.38;;
6467;SDS011;3267;48.794;9.928;2022-11-15T05:16:03;2.72;;;2.53;;
6467;SDS011;3267;48.794;9.928;2022-11-15T05:18:29;3.05;;;2.40;;
6467;SDS011;3267;48.794;9.928;2022-11-15T05:20:55;3.05;;;2.55;;
6467;SDS011;3267;48.794;9.928;2022-11-15T05:23:21;3.42;;;1.95;;
6467;SDS011;3267;48.794;9.928;2022-11-15T05:25:47;1.50;;;1.40;;
6467;SDS011;3267;48.794;9.928;2022-11-15T05:28:12;3.60;;;2.30;;
6467;SDS011;3267;48.794;9.928;2022-11-15T05:30:38;2.53;;;1.90;;
6467;SDS011;3267;48.794;9.928;2022-11-15T05:33:04;3.60;;;2.47;;
6467;SDS011;3267;48.794;9.928;2022-11-15T05:35:40;4.65;;;2.45;;
6467;SDS011;3267;48.794;9.928;2022-11-15T05:38:09;3.58;;;2.40;;
6467;SDS011;3267;48.794;9.928;2022-11-15T05:40:35;7.53;;;1.80;;
6467;SDS011;3267;48.794;9.928;2022-11-15T05:43:01;4.20;;;2.63;;
6467;SDS011;3267;48.794;9.928;2022-11-15T05:45:28;2.78;;;2.28;;
6467;SDS011;3267;48.794;9.928;2022-11-15T05:47:55;3.83;;;2.25;;
6467;SDS011;3267;48.794;9.928;2022-11-15T05:50:23;2.58;;;2.38;;
6467;SDS011;3267;48.794;9.928;2022-11-15T05:52:49;3.85;;;2.60;;
6467;SDS011;3267;48.794;9.928;2022-11-15T05:55:16;4.72;;;2.00;;
6467;SDS011;3267;48.794;9.928;2022-11-15T05:57:43;3.08;;;2.25;;
6467;SDS011;3267;48.794;9.928;2022-11-15T06:00:10;2.33;;;1.90;;
6467;SDS011;3267;48.794;9.928;2022-11-15T06:02:36;2.60;;;2.17;;
6467;SDS011;3267;48.794;9.928;2022-11-15T06:05:02;3.90;;;2.50;;
6467;SDS011;3267;48.794;9.928;2022-11-15T06:07:29;2.85;;;2.28;;
6467;SDS011;3267;48.794;9.928;2022-11-15T06:09:55;3.30;;;2.30;;
6467;SDS011;3267;48.794;9.928;2022-11-15T06:12:20;3.30;;;2.58;;
6467;SDS011;3267;48.794;9.928;2022-11-15T06:14:46;1.98;;;1.88;;
6467;SDS011;3267;48.794;9.928;2022-11-15T06:17:12;0.82;;;0.82;;
6467;SDS011;3267;48.794;9.928;2022-11-15T06:19:38;2.40;;;2.20;;
6467;SDS011;3267;48.794;9.928;2022-11-15T06:22:04;2.80;;;2.50;;
6467;SDS011;3267;48.794;9.928;2022-11-15T06:24:30;3.67;;;2.15;;
6467;SDS011;3267;48.794;9.928;2022-11-15T06:26:56;3.25;;;1.98;;
6467;SDS011;3267;48.794;9.928;2022-11-15T06:29:22;2.08;;;1.98;;
6467;SDS011;3267;48.794;9.928;2022-11-15T06:31:48;6.35;;;2.00;;
6467;SDS011;3267;48.794;9.928;2022-11-15T06:34:14;2.85;;;1.67;;
6467;SDS011;3267;48.794;9.928;2022-11-15T06:36:40;4.22;;;2.10;;
6467;SDS011;3267;48.794;9.928;2022-11-15T06:39:06;3.60;;;2.10;;
6467;SDS011;3267;48.794;9.928;2022-11-15T06:41:35;1.77;;;1.38;;
6467;SDS011;3267;48.794;9.928;2022-11-15T06:44:01;3.85;;;2.08;;
6467;SDS011;3267;48.794;9.928;2022-11-15T06:46:27;2.65;;;1.50;;
6467;SDS011;3267;48.794;9.928;2022-11-15T06:48:53;1.65;;;1.55;;
6467;SDS011;3267;48.794;9.928;2022-11-15T06:51:19;2.28;;;1.67;;
6467;SDS011;3267;48.794;9.928;2022-11-15T06:53:45;2.00;;;1.90;;
6467;SDS011;3267;48.794;9.928;2022-11-15T06:56:11;2.25;;;1.75;;
6467;SDS011;3267;48.794;9.928;2022-11-15T06:58:36;1.95;;;1.75;;
6467;SDS011;3267;48.794;9.928;2022-11-15T07:01:04;3.22;;;2.03;;
6467;SDS011;3267;48.794;9.928;2022-11-15T07:03:36;2.50;;;2.30;;
6467;SDS011;3267;48.794;9.928;2022-11-15T07:06:03;2.40;;;2.20;;
6467;SDS011;3267;48.794;9.928;2022-11-15T07:08:29;2.80;;;2.00;;
6467;SDS011;3267;48.794;9.928;2022-11-15T07:10:59;2.70;;;2.00;;
6467;SDS011;3267;48.794;9.928;2022-11-15T07:13:27;5.72;;;1.67;;
6467;SDS011;3267;48.794;9.928;2022-11-15T07:15:54;2.08;;;1.88;;
6467;SDS011;3267;48.794;9.928;2022-11-15T07:18:19;2.75;;;2.28;;
6467;SDS011;3267;48.794;9.928;2022-11-15T07:20:45;2.63;;;2.13;;
6467;SDS011;3267;48.794;9.928;2022-11-15T07:23:11;2.28;;;2.05;;
6467;SDS011;3267;48.794;9.928;2022-11-15T07:25:37;1.92;;;1.67;;
6467;SDS011;3267;48.794;9.928;2022-11-15T07:28:02;2.75;;;1.95;;
6467;SDS011;3267;48.794;9.928;2022-11-15T07:30:29;2.80;;;2.22;;
6467;SDS011;3267;48.794;9.928;2022-11-15T07:35:22;3.17;;;2.78;;
6467;SDS011;3267;48.794;9.928;2022-11-15T07:37:58;2.92;;;2.17;;
6467;SDS011;3267;48.794;9.928;2022-11-15T07:40:27;2.63;;;2.42;;
6467;SDS011;3267;48.794;9.928;2022-11-15T07:43:04;5.05;;;2.47;;
6467;SDS011;3267;48.794;9.928;2022-11-15T07:45:31;2.35;;;1.75;;
6467;SDS011;3267;48.794;9.928;2022-11-15T07:48:01;2.42;;;1.92;;
6467;SDS011;3267;48.794;9.928;2022-11-15T07:50:26;1.92;;;1.70;;
6467;SDS011;3267;48.794;9.928;2022-11-15T07:52:58;2.38;;;1.92;;
6467;SDS011;3267;48.794;9.928;2022-11-15T07:55:25;2.10;;;2.00;;
6467;SDS011;3267;48.794;9.928;2022-11-15T07:57:53;3.45;;;1.98;;
6467;SDS011;3267;48.794;9.928;2022-11-15T08:00:18;3.70;;;2.30;;
6467;SDS011;3267;48.794;9.928;2022-11-15T08:02:45;3.45;;;2.00;;
6467;SDS011;3267;48.794;9.928;2022-11-15T08:05:11;3.30;;;2.33;;
6467;SDS011;3267;48.794;9.928;2022-11-15T08:07:37;3.17;;;2.45;;
6467;SDS011;3267;48.794;9.928;2022-11-15T08:10:04;2.60;;;2.40;;
6467;SDS011;3267;48.794;9.928;2022-11-15T08:12:32;6.97;;;2.70;;
6467;SDS011;3267;48.794;9.928;2022-11-15T08:14:58;4.43;;;2.72;;
6467;SDS011;3267;48.794;9.928;2022-11-15T08:17:24;3.75;;;2.90;;
6467;SDS011;3267;48.794;9.928;2022-11-15T08:19:50;3.50;;;2.97;;
6467;SDS011;3267;48.794;9.928;2022-11-15T08:22:17;3.35;;;3.00;;
6467;SDS011;3267;48.794;9.928;2022-11-15T08:24:43;4.70;;;3.15;;
6467;SDS011;3267;48.794;9.928;2022-11-15T08:27:09;3.88;;;3.30;;
6467;SDS011;3267;48.794;9.928;2022-11-15T08:29:40;2.90;;;2.65;;
6467;SDS011;3267;48.794;9.928;2022-11-15T08:32:07;3.17;;;2.40;;
6467;SDS011;3267;48.794;9.928;2022-11-15T08:34:34;4.75;;;3.00;;
6467;SDS011;3267;48.794;9.928;2022-11-15T08:37:00;4.90;;;2.72;;
6467;SDS011;3267;48.794;9.928;2022-11-15T08:39:26;5.00;;;4.03;;
6467;SDS011;3267;48.794;9.928;2022-11-15T08:41:51;3.35;;;2.85;;
6467;SDS011;3267;48.794;9.928;2022-11-15T08:44:17;4.88;;;2.60;;
6467;SDS011;3267;48.794;9.928;2022-11-15T08:46:45;2.95;;;2.75;;
6467;SDS011;3267;48.794;9.928;2022-11-15T08:49:11;7.30;;;2.80;;
6467;SDS011;3267;48.794;9.928;2022-11-15T08:51:37;6.70;;;2.95;;
6467;SDS011;3267;48.794;9.928;2022-11-15T08:54:03;4.00;;;3.08;;
6467;SDS011;3267;48.794;9.928;2022-11-15T08:56:29;5.63;;;3.00;;
6467;SDS011;3267;48.794;9.928;2022-11-15T08:58:54;9.70;;;3.35;;
6467;SDS011;3267;48.794;9.928;2022-11-15T09:01:20;3.65;;;3.17;;
6467;SDS011;3267;48.794;9.928;2022-11-15T09:03:47;3.55;;;2.60;;
6467;SDS011;3267;48.794;9.928;2022-11-15T09:06:13;6.15;;;2.80;;
6467;SDS011;3267;48.794;9.928;2022-11-15T09:08:39;7.20;;;3.25;;
6467;SDS011;3267;48.794;9.928;2022-11-15T09:11:06;7.63;;;6.57;;
6467;SDS011;3267;48.794;9.928;2022-11-15T09:13:34;4.75;;;2.63;;
6467;SDS011;3267;48.794;9.928;2022-11-15T09:16:02;5.95;;;2.97;;
6467;SDS011;3267;48.794;9.928;2022-11-15T09:18:29;9.95;;;3.60;;
6467;SDS011;3267;48.794;9.928;2022-11-15T09:20:58;5.63;;;3.20;;
6467;SDS011;3267;48.794;9.928;2022-11-15T09:23:25;7.85;;;3.58;;
6467;SDS011;3267;48.794;9.928;2022-11-15T09:25:52;5.00;;;3.63;;
6467;SDS011;3267;48.794;9.928;2022-11-15T09:28:18;7.93;;;3.55;;
6467;SDS011;3267;48.794;9.928;2022-11-15T09:30:44;4.03;;;2.92;;
6467;SDS011;3267;48.794;9.928;2022-11-15T09:33:10;4.80;;;3.65;;
6467;SDS011;3267;48.794;9.928;2022-11-15T09:35:37;7.18;;;3.55;;
6467;SDS011;3267;48.794;9.928;2022-11-15T09:38:03;4.28;;;2.92;;
6467;SDS011;3267;48.794;9.928;2022-11-15T09:40:30;6.10;;;2.97;;
6467;SDS011;3267;48.794;9.928;2022-11-15T09:43:06;4.85;;;2.70;;
6467;SDS011;3267;48.794;9.928;2022-11-15T09:51:32;3.55;;;2.70;;
6467;SDS011;3267;48.794;9.928;2022-11-15T09:56:54;4.05;;;2.85;;
6467;SDS011;3267;48.794;9.928;2022-11-15T10:05:02;4.57;;;2.75;;
6467;SDS011;3267;48.794;9.928;2022-11-15T10:10:29;2.80;;;2.60;;
6467;SDS011;3267;48.794;9.928;2022-11-15T10:12:58;8.45;;;3.25;;
6467;SDS011;3267;48.794;9.928;2022-11-15T10:15:24;5.57;;;2.50;;
6467;SDS011;3267;48.794;9.928;2022-11-15T10:17:55;4.93;;;2.60;;
6467;SDS011;3267;48.794;9.928;2022-11-15T10:20:51;9.07;;;2.70;;
6467;SDS011;3267;48.794;9.928;2022-11-15T10:23:39;5.70;;;3.00;;
6467;SDS011;3267;48.794;9.928;2022-11-15T10:26:06;7.53;;;3.92;;
6467;SDS011;3267;48.794;9.928;2022-11-15T10:28:36;9.43;;;3.40;;
6467;SDS011;3267;48.794;9.928;2022-11-15T10:31:02;7.72;;;3.55;;
6467;SDS011;3267;48.794;9.928;2022-11-15T10:33:32;4.80;;;2.95;;
6467;SDS011;3267;48.794;9.928;2022-11-15T10:39:10;6.25;;;2.90;;
6467;SDS011;3267;48.794;9.928;2022-11-15T10:44:29;7.78;;;3.13;;
6467;SDS011;3267;48.794;9.928;2022-11-15T10:52:15;1.25;;;1.15;;
6467;SDS011;3267;48.794;9.928;2022-11-15T10:54:58;1.27;;;1.20;;
6467;SDS011;3267;48.794;9.928;2022-11-15T10:57:47;1.95;;;1.25;;
6467;SDS011;3267;48.794;9.928;2022-11-15T11:08:17;3.95;;;2.60;;
6467;SDS011;3267;48.794;9.928;2022-11-15T11:10:53;4.07;;;2.35;;
6467;SDS011;3267;48.794;9.928;2022-11-15T11:13:24;2.97;;;2.78;;
6467;SDS011;3267;48.794;9.928;2022-11-15T11:18:48;8.40;;;2.67;;
6467;SDS011;3267;48.794;9.928;2022-11-15T11:21:49;5.65;;;2.45;;
6467;SDS011;3267;48.794;9.928;2022-11-15T11:25:01;4.90;;;2.10;;
6467;SDS011;3267;48.794;9.928;2022-11-15T11:27:31;3.95;;;2.00;;
6467;SDS011;3267;48.794;9.928;2022-11-15T11:32:50;3.95;;;2.35;;
6467;SDS011;3267;48.794;9.928;2022-11-15T11:35:39;6.45;;;1.73;;
6467;SDS011;3267;48.794;9.928;2022-11-15T11:38:37;4.38;;;1.92;;
6467;SDS011;3267;48.794;9.928;2022-11-15T11:46:59;1.98;;;1.27;;
6467;SDS011;3267;48.794;9.928;2022-11-15T11:49:32;1.85;;;1.30;;
6467;SDS011;3267;48.794;9.928;2022-11-15T11:57:32;1.50;;;1.40;;
6467;SDS011;3267;48.794;9.928;2022-11-15T12:00:12;1.80;;;1.38;;
6467;SDS011;3267;48.794;9.928;2022-11-15T12:02:48;6.00;;;2.08;;
6467;SDS011;3267;48.794;9.928;2022-11-15T12:05:35;6.90;;;1.98;;
6467;SDS011;3267;48.794;9.928;2022-11-15T12:08:29;2.28;;;1.95;;
6467;SDS011;3267;48.794;9.928;2022-11-15T12:11:04;4.43;;;2.10;;
6467;SDS011;3267;48.794;9.928;2022-11-15T12:13:39;3.85;;;1.90;;
6467;SDS011;3267;48.794;9.928;2022-11-15T12:16:18;4.85;;;1.90;;
6467;SDS011;3267;48.794;9.928;2022-11-15T12:18:50;7.30;;;2.03;;
6467;SDS011;3267;48.794;9.928;2022-11-15T12:21:27;8.07;;;1.75;;
6467;SDS011;3267;48.794;9.928;2022-11-15T12:24:55;2.53;;;1.67;;
6467;SDS011;3267;48.794;9.928;2022-11-15T12:27:20;3.83;;;1.70;;
6467;SDS011;3267;48.794;9.928;2022-11-15T12:30:02;6.45;;;1.70;;
6467;SDS011;3267;48.794;9.928;2022-11-15T12:32:35;2.40;;;1.65;;
6467;SDS011;3267;48.794;9.928;2022-11-15T12:35:05;3.20;;;1.65;;
6467;SDS011;3267;48.794;9.928;2022-11-15T12:37:48;4.45;;;1.75;;
6467;SDS011;3267;48.794;9.928;2022-11-15T12:42:58;6.35;;;2.10;;
6467;SDS011;3267;48.794;9.928;2022-11-15T12:45:47;3.90;;;1.60;;
6467;SDS011;3267;48.794;9.928;2022-11-15T12:58:45;2.78;;;1.90;;
6467;SDS011;3267;48.794;9.928;2022-11-15T13:06:45;3.92;;;2.25;;
6467;SDS011;3267;48.794;9.928;2022-11-15T13:12:02;2.38;;;2.17;;
6467;SDS011;3267;48.794;9.928;2022-11-15T13:22:27;3.42;;;1.60;;
6467;SDS011;3267;48.794;9.928;2022-11-15T13:25:16;1.10;;;1.10;;
6467;SDS011;3267;48.794;9.928;2022-11-15T13:27:49;2.13;;;1.48;;
6467;SDS011;3267;48.794;9.928;2022-11-15T13:30:19;1.30;;;1.20;;
6467;SDS011;3267;48.794;9.928;2022-11-15T13:32:47;1.63;;;1.38;;
6467;SDS011;3267;48.794;9.928;2022-11-15T13:35:22;3.30;;;1.10;;
6467;SDS011;3267;48.794;9.928;2022-11-15T13:37:50;1.35;;;1.30;;
6467;SDS011;3267;48.794;9.928;2022-11-15T13:40:28;1.40;;;1.30;;
6467;SDS011;3267;48.794;9.928;2022-11-15T13:42:59;1.30;;;1.20;;
6467;SDS011;3267;48.794;9.928;2022-11-15T13:46:10;1.23;;;1.13;;
6467;SDS011;3267;48.794;9.928;2022-11-15T13:48:37;1.13;;;1.05;;
6467;SDS011;3267;48.794;9.928;2022-11-15T13:51:08;1.33;;;1.10;;
6467;SDS011;3267;48.794;9.928;2022-11-15T13:53:49;1.52;;;1.42;;
6467;SDS011;3267;48.794;9.928;2022-11-15T13:56:23;1.50;;;1.40;;
6467;SDS011;3267;48.794;9.928;2022-11-15T13:58:58;3.10;;;1.75;;
6467;SDS011;3267;48.794;9.928;2022-11-15T14:01:24;2.75;;;1.73;;
6467;SDS011;3267;48.794;9.928;2022-11-15T14:03:57;2.00;;;1.80;;
6467;SDS011;3267;48.794;9.928;2022-11-15T14:06:28;4.45;;;2.10;;
6467;SDS011;3267;48.794;9.928;2022-11-15T14:11:36;5.20;;;2.08;;
6467;SDS011;3267;48.794;9.928;2022-11-15T14:14:08;5.90;;;1.70;;
6467;SDS011;3267;48.794;9.928;2022-11-15T14:16:41;4.88;;;1.70;;
6467;SDS011;3267;48.794;9.928;2022-11-15T14:19:32;4.63;;;1.50;;
6467;SDS011;3267;48.794;9.928;2022-11-15T14:25:34;5.18;;;1.48;;
6467;SDS011;3267;48.794;9.928;2022-11-15T14:27:42;2.20;;;1.65;;
6467;SDS011;3267;48.794;9.928;2022-11-15T14:30:15;3.20;;;1.52;;
6467;SDS011;3267;48.794;9.928;2022-11-15T14:32:43;2.35;;;1.80;;
6467;SDS011;3267;48.794;9.928;2022-11-15T14:35:13;4.57;;;1.73;;
6467;SDS011;3267;48.794;9.928;2022-11-15T14:37:44;2.42;;;1.20;;
6467;SDS011;3267;48.794;9.928;2022-11-15T14:40:18;1.13;;;1.00;;
6467;SDS011;3267;48.794;9.928;2022-11-15T14:42:46;2.70;;;1.40;;
6467;SDS011;3267;48.794;9.928;2022-11-15T14:45:13;1.63;;;1.17;;
6467;SDS011;3267;48.794;9.928;2022-11-15T14:47:41;1.30;;;0.90;;
6467;SDS011;3267;48.794;9.928;2022-11-15T14:50:12;1.30;;;1.20;;
6467;SDS011;3267;48.794;9.928;2022-11-15T14:52:39;1.60;;;1.50;;
6467;SDS011;3267;48.794;9.928;2022-11-15T14:55:16;2.25;;;1.42;;
6467;SDS011;3267;48.794;9.928;2022-11-15T14:57:46;3.55;;;1.45;;
6467;SDS011;3267;48.794;9.928;2022-11-15T15:00:13;1.50;;;1.40;;
6467;SDS011;3267;48.794;9.928;2022-11-15T15:02:40;1.52;;;1.42;;
6467;SDS011;3267;48.794;9.928;2022-11-15T15:05:18;1.63;;;1.52;;
6467;SDS011;3267;48.794;9.928;2022-11-15T15:07:53;2.22;;;2.03;;
6467;SDS011;3267;48.794;9.928;2022-11-15T15:10:19;1.98;;;1.48;;
6467;SDS011;3267;48.794;9.928;2022-11-15T15:12:45;2.97;;;1.67;;
6467;SDS011;3267;48.794;9.928;2022-11-15T15:15:44;1.48;;;1.38;;
6467;SDS011;3267;48.794;9.928;2022-11-15T15:18:03;3.55;;;1.77;;
6467;SDS011;3267;48.794;9.928;2022-11-15T15:20:33;1.58;;;1.25;;
6467;SDS011;3267;48.794;9.928;2022-11-15T15:23:00;2.35;;;1.48;;
6467;SDS011;3267;48.794;9.928;2022-11-15T15:25:33;3.38;;;1.42;;
6467;SDS011;3267;48.794;9.928;2022-11-15T15:28:00;4.45;;;1.90;;
6467;SDS011;3267;48.794;9.928;2022-11-15T15:30:27;2.00;;;1.80;;
6467;SDS011;3267;48.794;9.928;2022-11-15T15:32:54;1.67;;;1.40;;
6467;SDS011;3267;48.794;9.928;2022-11-15T15:35:21;2.05;;;1.70;;
6467;SDS011;3267;48.794;9.928;2022-11-15T15:37:47;5.15;;;2.33;;
6467;SDS011;3267;48.794;9.928;2022-11-15T15:40:15;2.72;;;2.13;;
6467;SDS011;3267;48.794;9.928;2022-11-15T15:42:43;2.10;;;1.67;;
6467;SDS011;3267;48.794;9.928;2022-11-15T15:45:09;2.35;;;1.38;;
6467;SDS011;3267;48.794;9.928;2022-11-15T15:47:35;1.50;;;1.40;;
6467;SDS011;3267;48.794;9.928;2022-11-15T15:50:03;3.78;;;1.67;;
6467;SDS011;3267;48.794;9.928;2022-11-15T15:52:37;1.80;;;1.63;;
6467;SDS011;3267;48.794;9.928;2022-11-15T15:55:02;1.58;;;1.48;;
6467;SDS011;3267;48.794;9.928;2022-11-15T15:57:29;2.10;;;1.90;;
6467;SDS011;3267;48.794;9.928;2022-11-15T15:59:54;2.38;;;2.20;;
6467;SDS011;3267;48.794;9.928;2022-11-15T16:02:20;4.22;;;1.92;;
6467;SDS011;3267;48.794;9.928;2022-11-15T16:04:46;2.75;;;2.38;;
6467;SDS011;3267;48.794;9.928;2022-11-15T16:07:15;2.20;;;2.03;;
6467;SDS011;3267;48.794;9.928;2022-11-15T16:09:46;2.88;;;2.28;;
6467;SDS011;3267;48.794;9.928;2022-11-15T16:12:31;3.58;;;2.22;;
6467;SDS011;3267;48.794;9.928;2022-11-15T16:15:01;2.42;;;2.20;;
6467;SDS011;3267;48.794;9.928;2022-11-15T16:17:32;7.90;;;2.22;;
6467;SDS011;3267;48.794;9.928;2022-11-15T16:20:02;2.25;;;2.05;;
6467;SDS011;3267;48.794;9.928;2022-11-15T16:22:28;2.38;;;2.17;;
6467;SDS011;3267;48.794;9.928;2022-11-15T16:24:54;4.38;;;2.80;;
6467;SDS011;3267;48.794;9.928;2022-11-15T16:27:20;6.00;;;3.22;;
6467;SDS011;3267;48.794;9.928;2022-11-15T16:29:47;4.43;;;3.58;;
6467;SDS011;3267;48.794;9.928;2022-11-15T16:32:14;4.65;;;4.10;;
6467;SDS011;3267;48.794;9.928;2022-11-15T16:34:40;7.38;;;3.92;;
6467;SDS011;3267;48.794;9.928;2022-11-15T16:37:15;3.92;;;3.63;;
6467;SDS011;3267;48.794;9.928;2022-11-15T16:39:49;6.10;;;4.75;;
6467;SDS011;3267;48.794;9.928;2022-11-15T16:42:18;5.55;;;4.57;;
6467;SDS011;3267;48.794;9.928;2022-11-15T16:44:43;5.97;;;4.03;;
6467;SDS011;3267;48.794;9.928;2022-11-15T16:47:18;5.93;;;4.10;;
6467;SDS011;3267;48.794;9.928;2022-11-15T16:49:45;6.55;;;4.22;;
6467;SDS011;3267;48.794;9.928;2022-11-15T16:52:11;7.55;;;4.68;;
6467;SDS011;3267;48.794;9.928;2022-11-15T16:54:37;7.30;;;4.85;;
6467;SDS011;3267;48.794;9.928;2022-11-15T16:57:03;5.75;;;4.60;;
6467;SDS011;3267;48.794;9.928;2022-11-15T16:59:29;5.50;;;4.60;;
6467;SDS011;3267;48.794;9.928;2022-11-15T17:01:57;11.20;;;4.82;;
6467;SDS011;3267;48.794;9.928;2022-11-15T17:04:23;5.07;;;4.40;;
6467;SDS011;3267;48.794;9.928;2022-11-15T17:06:52;6.03;;;4.00;;
6467;SDS011;3267;48.794;9.928;2022-11-15T17:09:19;5.43;;;3.80;;
6467;SDS011;3267;48.794;9.928;2022-11-15T17:11:49;7.35;;;4.50;;
6467;SDS011;3267;48.794;9.928;2022-11-15T17:14:15;5.00;;;3.67;;
6467;SDS011;3267;48.794;9.928;2022-11-15T17:16:41;4.00;;;3.67;;
6467;SDS011;3267;48.794;9.928;2022-11-15T17:19:16;5.75;;;4.03;;
6467;SDS011;3267;48.794;9.928;2022-11-15T17:21:46;6.07;;;3.92;;
6467;SDS011;3267;48.794;9.928;2022-11-15T17:24:13;4.65;;;3.20;;
6467;SDS011;3267;48.794;9.928;2022-11-15T17:26:39;8.27;;;4.18;;
6467;SDS011;3267;48.794;9.928;2022-11-15T17:29:07;4.68;;;4.00;;
6467;SDS011;3267;48.794;9.928;2022-11-15T17:31:36;5.32;;;4.05;;
6467;SDS011;3267;48.794;9.928;2022-11-15T17:34:03;4.88;;;3.90;;
6467;SDS011;3267;48.794;9.928;2022-11-15T17:36:30;9.07;;;4.38;;
6467;SDS011;3267;48.794;9.928;2022-11-15T17:38:56;6.78;;;4.55;;
6467;SDS011;3267;48.794;9.928;2022-11-15T17:41:23;5.90;;;4.78;;
6467;SDS011;3267;48.794;9.928;2022-11-15T17:43:49;7.50;;;4.50;;
6467;SDS011;3267;48.794;9.928;2022-11-15T17:46:15;7.88;;;4.85;;
6467;SDS011;3267;48.794;9.928;2022-11-15T17:48:44;10.65;;;5.05;;
6467;SDS011;3267;48.794;9.928;2022-11-15T17:51:11;5.18;;;4.55;;
6467;SDS011;3267;48.794;9.928;2022-11-15T17:53:39;6.00;;;5.13;;
6467;SDS011;3267;48.794;9.928;2022-11-15T17:56:07;7.55;;;5.20;;
6467;SDS011;3267;48.794;9.928;2022-11-15T17:58:41;6.30;;;5.25;;
6467;SDS011;3267;48.794;9.928;2022-11-15T18:01:16;6.45;;;4.72;;
6467;SDS011;3267;48.794;9.928;2022-11-15T18:03:46;11.38;;;4.68;;
6467;SDS011;3267;48.794;9.928;2022-11-15T18:06:14;7.53;;;4.78;;
6467;SDS011;3267;48.794;9.928;2022-11-15T18:08:41;6.43;;;4.22;;
6467;SDS011;3267;48.794;9.928;2022-11-15T18:11:12;4.35;;;3.95;;
6467;SDS011;3267;48.794;9.928;2022-11-15T18:13:40;6.80;;;5.20;;
6467;SDS011;3267;48.794;9.928;2022-11-15T18:16:09;5.57;;;4.63;;
6467;SDS011;3267;48.794;9.928;2022-11-15T18:18:38;8.98;;;3.15;;
6467;SDS011;3267;48.794;9.928;2022-11-15T18:21:04;7.53;;;3.80;;
6467;SDS011;3267;48.794;9.928;2022-11-15T18:23:35;8.70;;;4.35;;
6467;SDS011;3267;48.794;9.928;2022-11-15T18:26:01;12.73;;;4.20;;
6467;SDS011;3267;48.794;9.928;2022-11-15T18:28:32;5.68;;;4.20;;
6467;SDS011;3267;48.794;9.928;2022-11-15T18:31:00;10.82;;;4.75;;
6467;SDS011;3267;48.794;9.928;2022-11-15T18:33:27;8.82;;;4.53;;
6467;SDS011;3267;48.794;9.928;2022-11-15T18:35:58;5.63;;;4.10;;
6467;SDS011;3267;48.794;9.928;2022-11-15T18:38:31;7.70;;;4.32;;
6467;SDS011;3267;48.794;9.928;2022-11-15T18:40:59;4.50;;;3.83;;
6467;SDS011;3267;48.794;9.928;2022-11-15T18:43:34;4.38;;;3.97;;
6467;SDS011;3267;48.794;9.928;2022-11-15T18:46:02;8.80;;;4.45;;
6467;SDS011;3267;48.794;9.928;2022-11-15T18:48:28;5.38;;;4.55;;
6467;SDS011;3267;48.794;9.928;2022-11-15T18:51:02;4.65;;;3.80;;
6467;SDS011;3267;48.794;9.928;2022-11-15T18:53:29;6.18;;;4.22;;
6467;SDS011;3267;48.794;9.928;2022-11-15T18:55:59;8.00;;;4.75;;
6467;SDS011;3267;48.794;9.928;2022-11-15T18:58:34;7.18;;;4.43;;
6467;SDS011;3267;48.794;9.928;2022-11-15T19:01:12;3.90;;;3.53;;
6467;SDS011;3267;48.794;9.928;2022-11-15T19:03:39;5.07;;;4.60;;
6467;SDS011;3267;48.794;9.928;2022-11-15T19:06:16;7.13;;;4.38;;
6467;SDS011;3267;48.794;9.928;2022-11-15T19:08:45;5.22;;;3.75;;
6467;SDS011;3267;48.794;9.928;2022-11-15T19:11:13;7.93;;;4.05;;
6467;SDS011;3267;48.794;9.928;2022-11-15T19:13:41;14.27;;;4.28;;
6467;SDS011;3267;48.794;9.928;2022-11-15T19:16:08;7.57;;;4.28;;
6467;SDS011;3267;48.794;9.928;2022-11-15T19:18:37;5.82;;;4.22;;
6467;SDS011;3267;48.794;9.928;2022-11-15T19:21:12;3.70;;;3.40;;
6467;SDS011;3267;48.794;9.928;2022-11-15T19:23:41;4.22;;;3.72;;
6467;SDS011;3267;48.794;9.928;2022-11-15T19:26:11;7.47;;;4.70;;
6467;SDS011;3267;48.794;9.928;2022-11-15T19:28:38;6.32;;;4.95;;
6467;SDS011;3267;48.794;9.928;2022-11-15T19:31:05;4.80;;;3.95;;
6467;SDS011;3267;48.794;9.928;2022-11-15T19:33:41;9.43;;;4.53;;
6467;SDS011;3267;48.794;9.928;2022-11-15T19:36:12;6.30;;;3.53;;
6467;SDS011;3267;48.794;9.928;2022-11-15T19:38:40;5.80;;;4.15;;
6467;SDS011;3267;48.794;9.928;2022-11-15T19:41:07;4.15;;;3.00;;
6467;SDS011;3267;48.794;9.928;2022-11-15T19:43:38;6.97;;;3.90;;
6467;SDS011;3267;48.794;9.928;2022-11-15T19:46:04;6.35;;;4.15;;
6467;SDS011;3267;48.794;9.928;2022-11-15T19:48:31;5.53;;;4.47;;
6467;SDS011;3267;48.794;9.928;2022-11-15T19:51:00;5.82;;;5.22;;
6467;SDS011;3267;48.794;9.928;2022-11-15T19:53:27;7.13;;;3.97;;
6467;SDS011;3267;48.794;9.928;2022-11-15T19:55:53;5.32;;;4.60;;
6467;SDS011;3267;48.794;9.928;2022-11-15T19:58:20;6.00;;;4.18;;
6467;SDS011;3267;48.794;9.928;2022-11-15T20:00:46;5.18;;;4.38;;
6467;SDS011;3267;48.794;9.928;2022-11-15T20:03:12;15.80;;;6.65;;
6467;SDS011;3267;48.794;9.928;2022-11-15T20:05:38;7.97;;;4.75;;
6467;SDS011;3267;48.794;9.928;2022-11-15T20:08:04;5.68;;;4.43;;
6467;SDS011;3267;48.794;9.928;2022-11-15T20:10:30;4.97;;;4.35;;
6467;SDS011;3267;48.794;9.928;2022-11-15T20:12:55;6.70;;;3.55;;
6467;SDS011;3267;48.794;9.928;2022-11-15T20:15:21;4.72;;;4.05;;
6467;SDS011;3267;48.794;9.928;2022-11-15T20:17:47;5.75;;;3.80;;
6467;SDS011;3267;48.794;9.928;2022-11-15T20:20:13;3.58;;;3.20;;
6467;SDS011;3267;48.794;9.928;2022-11-15T20:22:39;4.78;;;3.65;;
6467;SDS011;3267;48.794;9.928;2022-11-15T20:25:04;5.80;;;3.72;;
6467;SDS011;3267;48.794;9.928;2022-11-15T20:27:30;4.57;;;4.18;;
6467;SDS011;3267;48.794;9.928;2022-11-15T20:29:56;3.88;;;3.40;;
6467;SDS011;3267;48.794;9.928;2022-11-15T20:32:22;3.90;;;3.47;;
6467;SDS011;3267;48.794;9.928;2022-11-15T20:34:48;4.18;;;3.72;;
6467;SDS011;3267;48.794;9.928;2022-11-15T20:37:14;4.43;;;3.38;;
6467;SDS011;3267;48.794;9.928;2022-11-15T20:39:44;5.80;;;3.55;;
6467;SDS011;3267;48.794;9.928;2022-11-15T20:42:10;5.10;;;3.20;;
6467;SDS011;3267;48.794;9.928;2022-11-15T20:44:36;5.40;;;3.47;;
6467;SDS011;3267;48.794;9.928;2022-11-15T20:47:01;4.63;;;3.65;;
6467;SDS011;3267;48.794;9.928;2022-11-15T20:49:28;3.58;;;3.25;;
6467;SDS011;3267;48.794;9.928;2022-11-15T20:51:54;4.60;;;3.75;;
6467;SDS011;3267;48.794;9.928;2022-11-15T20:54:20;3.22;;;2.92;;
6467;SDS011;3267;48.794;9.928;2022-11-15T20:56:46;4.53;;;4.07;;
6467;SDS011;3267;48.794;9.928;2022-11-15T20:59:11;7.70;;;4.47;;
6467;SDS011;3267;48.794;9.928;2022-11-15T21:01:37;3.67;;;3.13;;
6467;SDS011;3267;48.794;9.928;2022-11-15T21:04:03;4.97;;;3.45;;
6467;SDS011;3267;48.794;9.928;2022-11-15T21:06:29;5.65;;;3.13;;
6467;SDS011;3267;48.794;9.928;2022-11-15T21:08:55;7.22;;;4.50;;
6467;SDS011;3267;48.794;9.928;2022-11-15T21:11:40;11.65;;;7.75;;
6467;SDS011;3267;48.794;9.928;2022-11-15T21:14:24;4.43;;;3.05;;
6467;SDS011;3267;48.794;9.928;2022-11-15T21:16:50;6.25;;;3.50;;
6467;SDS011;3267;48.794;9.928;2022-11-15T21:19:16;4.82;;;3.15;;
6467;SDS011;3267;48.794;9.928;2022-11-15T21:21:42;5.82;;;2.50;;
6467;SDS011;3267;48.794;9.928;2022-11-15T21:24:08;5.35;;;2.50;;
6467;SDS011;3267;48.794;9.928;2022-11-15T21:26:34;4.97;;;2.60;;
6467;SDS011;3267;48.794;9.928;2022-11-15T21:29:01;4.10;;;2.35;;
6467;SDS011;3267;48.794;9.928;2022-11-15T21:31:27;2.33;;;2.15;;
6467;SDS011;3267;48.794;9.928;2022-11-15T21:33:53;2.92;;;2.00;;
6467;SDS011;3267;48.794;9.928;2022-11-15T21:36:19;2.40;;;2.00;;
6467;SDS011;3267;48.794;9.928;2022-11-15T21:38:45;2.30;;;1.80;;
6467;SDS011;3267;48.794;9.928;2022-11-15T21:41:11;2.58;;;1.90;;
6467;SDS011;3267;48.794;9.928;2022-11-15T21:43:37;6.00;;;2.22;;
6467;SDS011;3267;48.794;9.928;2022-11-15T21:46:04;2.42;;;2.08;;
6467;SDS011;3267;48.794;9.928;2022-11-15T21:48:31;5.57;;;2.42;;
6467;SDS011;3267;48.794;9.928;2022-11-15T21:50:59;2.42;;;2.20;;
6467;SDS011;3267;48.794;9.928;2022-11-15T21:53:27;4.35;;;2.25;;
6467;SDS011;3267;48.794;9.928;2022-11-15T21:55:53;2.58;;;2.20;;
6467;SDS011;3267;48.794;9.928;2022-11-15T21:58:19;2.65;;;2.40;;
6467;SDS011;3267;48.794;9.928;2022-11-15T22:00:46;5.55;;;4.93;;
6467;SDS011;3267;48.794;9.928;2022-11-15T22:03:31;2.85;;;2.63;;